createdAt,value
2019-04-25T00:02:17.816Z,6.80
2019-04-25T00:04:47.243Z,6.90
2019-04-25T00:07:16.858Z,7.00
2019-04-25T00:09:48.229Z,7.00
2019-04-25T00:12:18.395Z,7.00
2019-04-25T00:14:48.124Z,7.00
2019-04-25T00:17:17.968Z,7.00
2019-04-25T00:19:47.418Z,6.90
2019-04-25T00:22:18.435Z,6.90
2019-04-25T00:24:49.523Z,6.80
2019-04-25T00:27:18.896Z,6.70
2019-04-25T00:29:48.797Z,6.60
2019-04-25T00:32:18.111Z,6.50
2019-04-25T00:34:48.405Z,6.50
2019-04-25T00:37:17.732Z,6.50
2019-04-25T00:39:47.136Z,6.50
2019-04-25T00:42:16.451Z,6.50
2019-04-25T00:44:45.966Z,6.50
2019-04-25T00:47:15.268Z,6.50
2019-04-25T00:49:45.274Z,6.50
2019-04-25T00:52:15.284Z,6.60
2019-04-25T00:54:44.651Z,6.60
2019-04-25T00:57:14.566Z,6.60
2019-04-25T00:59:48.884Z,6.60
2019-04-25T01:02:21.431Z,6.70
2019-04-25T01:04:52.082Z,6.80
2019-04-25T01:07:22.445Z,6.80
2019-04-25T01:09:53.639Z,6.80
2019-04-25T01:12:23.981Z,6.80
2019-04-25T01:14:53.734Z,6.80
2019-04-25T01:17:23.957Z,6.80
2019-04-25T01:19:56.914Z,6.80
2019-04-25T01:22:24.562Z,6.80
2019-04-25T01:24:54.944Z,6.70
2019-04-25T01:27:24.550Z,6.80
2019-04-25T01:29:54.462Z,6.80
2019-04-25T01:32:26.212Z,6.80
2019-04-25T01:35:13.993Z,6.80
2019-04-25T01:38:01.114Z,6.70
2019-04-25T01:40:49.419Z,6.70
2019-04-25T01:43:38.924Z,6.70
2019-04-25T01:46:10.690Z,6.70
2019-04-25T01:48:40.139Z,6.60
2019-04-25T01:51:09.510Z,6.60
2019-04-25T01:53:38.873Z,6.60
2019-04-25T01:56:08.387Z,6.50
2019-04-25T01:58:37.824Z,6.50
2019-04-25T02:01:07.334Z,6.50
2019-04-25T02:03:36.776Z,6.50
2019-04-25T02:06:06.543Z,6.50
2019-04-25T02:08:36.061Z,6.50
2019-04-25T02:11:24.023Z,6.40
2019-04-25T02:13:54.914Z,6.30
2019-04-25T02:16:24.787Z,6.20
2019-04-25T02:18:55.226Z,6.20
2019-04-25T02:21:25.324Z,6.30
2019-04-25T02:23:55.782Z,6.30
2019-04-25T02:26:25.790Z,6.40
2019-04-25T02:28:56.116Z,6.40
2019-04-25T02:31:26.469Z,6.40
2019-04-25T02:33:57.911Z,6.40
2019-04-25T02:36:27.062Z,6.40
2019-04-25T02:38:59.559Z,6.40
2019-04-25T02:41:27.569Z,6.40
2019-04-25T02:44:01.188Z,6.40
2019-04-25T02:46:41.404Z,6.40
2019-04-25T02:49:31.804Z,6.40
2019-04-25T02:52:12.798Z,6.40
2019-04-25T02:54:40.353Z,6.50
2019-04-25T02:57:09.738Z,6.50
2019-04-25T02:59:39.103Z,6.50
2019-04-25T03:02:09.281Z,6.50
2019-04-25T03:04:39.001Z,6.50
2019-04-25T03:07:11.281Z,6.50
2019-04-25T03:09:39.843Z,6.50
2019-04-25T03:12:09.496Z,6.50
2019-04-25T03:14:39.191Z,6.50
2019-04-25T03:17:09.960Z,6.40
2019-04-25T03:19:46.977Z,6.40
2019-04-25T03:22:20.963Z,6.40
2019-04-25T03:24:50.591Z,6.40
2019-04-25T03:27:20.042Z,6.30
2019-04-25T03:29:49.532Z,6.30
2019-04-25T03:32:20.115Z,6.30
2019-04-25T03:34:49.756Z,6.20
2019-04-25T03:37:19.289Z,6.20
2019-04-25T03:39:48.762Z,6.20
2019-04-25T03:42:18.163Z,6.20
2019-04-25T03:44:47.757Z,6.20
2019-04-25T03:47:17.408Z,6.20
2019-04-25T03:49:46.787Z,6.20
2019-04-25T03:52:16.197Z,6.20
2019-04-25T03:54:45.586Z,6.10
2019-04-25T03:57:15.066Z,6.10
2019-04-25T03:59:44.469Z,6.10
2019-04-25T04:02:15.196Z,6.10
2019-04-25T04:04:44.886Z,6.10
2019-04-25T04:07:15.847Z,6.00
2019-04-25T04:09:45.350Z,6.00
2019-04-25T04:12:15.664Z,6.00
2019-04-25T04:14:45.120Z,6.00
2019-04-25T04:17:33.898Z,6.00
2019-04-25T04:20:06.802Z,6.00
2019-04-25T04:22:53.895Z,6.00
2019-04-25T04:25:23.694Z,6.00
2019-04-25T04:27:53.813Z,6.00
2019-04-25T04:30:24.153Z,5.90
2019-04-25T04:32:53.766Z,5.90
2019-04-25T04:35:23.560Z,6.00
2019-04-25T04:37:54.178Z,5.90
2019-04-25T04:40:24.263Z,6.00
2019-04-25T04:42:53.845Z,6.00
2019-04-25T04:45:23.388Z,6.10
2019-04-25T04:47:53.323Z,6.10
2019-04-25T04:50:23.254Z,6.10
2019-04-25T04:52:54.100Z,6.10
2019-04-25T04:55:23.542Z,6.20
2019-04-25T04:57:54.265Z,6.20
2019-04-25T05:00:25.308Z,6.30
2019-04-25T05:03:05.470Z,6.30
2019-04-25T05:05:51.728Z,6.40
2019-04-25T05:08:24.766Z,6.60
2019-04-25T05:10:54.505Z,7.10
2019-04-25T05:13:25.203Z,7.80
2019-04-25T05:15:54.777Z,8.30
2019-04-25T05:18:36.611Z,8.80
2019-04-25T05:20:55.368Z,9.20
2019-04-25T05:23:24.959Z,9.70
2019-04-25T05:25:55.791Z,10.20
2019-04-25T05:28:25.393Z,10.70
2019-04-25T05:30:56.440Z,11.20
2019-04-25T05:33:25.928Z,11.70
2019-04-25T05:35:55.347Z,12.30
2019-04-25T05:38:25.225Z,12.90
2019-04-25T05:41:05.229Z,13.40
2019-04-25T05:43:34.739Z,13.60
2019-04-25T05:46:04.351Z,13.70
2019-04-25T05:48:34.106Z,13.50
2019-04-25T05:51:03.966Z,13.00
2019-04-25T05:53:33.581Z,12.50
2019-04-25T05:56:04.145Z,12.20
2019-04-25T05:58:34.039Z,12.00
2019-04-25T06:01:03.638Z,12.00
2019-04-25T06:03:34.031Z,12.10
2019-04-25T06:06:03.543Z,12.20
2019-04-25T06:08:34.769Z,12.30
2019-04-25T06:11:05.954Z,12.80
2019-04-25T06:13:37.164Z,13.70
2019-04-25T06:16:08.431Z,14.70
2019-04-25T06:18:56.061Z,15.70
2019-04-25T06:21:25.701Z,16.20
2019-04-25T06:24:13.393Z,15.90
2019-04-25T06:26:44.871Z,15.90
2019-04-25T06:29:14.315Z,15.80
2019-04-25T06:31:43.978Z,15.50
2019-04-25T06:34:14.090Z,15.10
2019-04-25T06:36:44.091Z,14.50
2019-04-25T06:39:14.223Z,14.20
2019-04-25T06:41:44.238Z,13.80
2019-04-25T06:44:15.505Z,13.50
2019-04-25T06:47:03.373Z,13.20
2019-04-25T06:49:40.376Z,13.10
2019-04-25T06:52:10.192Z,13.00
2019-04-25T06:54:39.622Z,13.00
2019-04-25T06:57:09.048Z,12.90
2019-04-25T06:59:41.247Z,13.20
2019-04-25T07:02:09.858Z,13.90
2019-04-25T07:04:39.377Z,14.70
2019-04-25T07:07:12.130Z,15.50
2019-04-25T07:09:40.204Z,15.80
2019-04-25T07:12:09.628Z,15.80
2019-04-25T07:14:39.100Z,15.60
2019-04-25T07:17:08.526Z,15.40
2019-04-25T07:19:37.952Z,15.30
2019-04-25T07:22:07.460Z,15.20
2019-04-25T07:24:36.862Z,15.10
2019-04-25T07:27:24.621Z,14.80
2019-04-25T07:29:58.923Z,14.50
2019-04-25T07:32:31.283Z,14.10
2019-04-25T07:35:00.756Z,13.90
2019-04-25T07:37:30.174Z,13.80
2019-04-25T07:39:59.846Z,13.80
2019-04-25T07:42:29.834Z,14.00
2019-04-25T07:44:59.269Z,14.20
2019-04-25T07:47:29.287Z,14.70
2019-04-25T07:49:59.058Z,15.00
2019-04-25T07:52:28.860Z,15.30
2019-04-25T07:54:58.516Z,15.20
2019-04-25T07:57:28.010Z,15.10
2019-04-25T07:59:57.688Z,15.10
2019-04-25T08:02:28.093Z,15.10
2019-04-25T08:04:59.284Z,15.50
2019-04-25T08:07:29.658Z,16.20
2019-04-25T08:09:59.136Z,17.00
2019-04-25T08:12:28.633Z,18.20
2019-04-25T08:14:59.721Z,19.50
2019-04-25T08:17:47.045Z,20.20
2019-04-25T08:20:17.908Z,21.10
2019-04-25T08:22:56.222Z,21.40
2019-04-25T08:25:19.444Z,21.30
2019-04-25T08:27:48.973Z,21.00
2019-04-25T08:30:18.607Z,20.50
2019-04-25T08:32:48.458Z,20.10
2019-04-25T08:35:18.445Z,20.10
2019-04-25T08:37:48.003Z,19.90
2019-04-25T08:40:18.583Z,19.50
2019-04-25T08:42:48.155Z,19.20
2019-04-25T08:45:18.301Z,18.80
2019-04-25T08:47:47.754Z,18.70
2019-04-25T08:50:29.092Z,18.80
2019-04-25T08:52:50.564Z,18.70
2019-04-25T08:55:38.305Z,18.80
2019-04-25T08:58:09.480Z,18.90
2019-04-25T09:00:58.252Z,18.70
2019-04-25T09:03:22.083Z,18.30
2019-04-25T09:05:53.408Z,17.80
2019-04-25T09:08:24.082Z,17.30
2019-04-25T09:10:53.624Z,17.00
2019-04-25T09:13:23.404Z,16.80
2019-04-25T09:15:54.026Z,16.50
2019-04-25T09:18:24.096Z,16.50
2019-04-25T09:20:54.046Z,16.40
2019-04-25T09:23:23.716Z,16.40
2019-04-25T09:25:54.456Z,16.40
2019-04-25T09:28:23.975Z,16.60
2019-04-25T09:30:53.986Z,16.80
2019-04-25T09:33:23.820Z,17.00
2019-04-25T09:35:54.085Z,17.80
2019-04-25T09:38:24.391Z,19.40
2019-04-25T09:40:54.214Z,20.90
2019-04-25T09:43:23.924Z,22.00
2019-04-25T09:46:00.697Z,22.60
2019-04-25T09:48:36.256Z,23.10
2019-04-25T09:51:07.747Z,22.90
2019-04-25T09:53:44.518Z,22.20
2019-04-25T09:56:17.331Z,21.50
2019-04-25T09:58:54.229Z,20.90
2019-04-25T10:01:33.860Z,20.40
2019-04-25T10:04:04.058Z,19.60
2019-04-25T10:06:33.444Z,19.50
2019-04-25T10:09:04.996Z,19.30
2019-04-25T10:11:35.071Z,19.20
2019-04-25T10:14:13.526Z,19.20
2019-04-25T10:16:44.504Z,19.30
2019-04-25T10:19:14.845Z,19.50
2019-04-25T10:21:45.162Z,19.70
2019-04-25T10:24:14.657Z,19.80
2019-04-25T10:26:45.218Z,19.50
2019-04-25T10:29:15.521Z,19.00
2019-04-25T10:31:45.222Z,18.70
2019-04-25T10:34:14.787Z,18.40
2019-04-25T10:36:45.391Z,18.30
2019-04-25T10:39:14.899Z,18.50
2019-04-25T10:41:46.092Z,18.50
2019-04-25T10:44:15.599Z,18.60
2019-04-25T10:46:46.835Z,18.60
2019-04-25T10:49:16.300Z,18.80
2019-04-25T10:51:45.921Z,19.00
2019-04-25T10:54:15.373Z,19.00
2019-04-25T10:56:47.009Z,19.10
2019-04-25T10:59:16.004Z,19.50
2019-04-25T11:01:46.373Z,19.80
2019-04-25T11:04:18.303Z,20.50
2019-04-25T11:06:49.250Z,21.00
2019-04-25T11:09:25.506Z,20.80
2019-04-25T11:11:55.062Z,20.70
2019-04-25T11:14:25.248Z,20.80
2019-04-25T11:16:55.235Z,20.90
2019-04-25T11:19:24.910Z,21.10
2019-04-25T11:21:54.439Z,21.30
2019-04-25T11:24:23.903Z,21.30
2019-04-25T11:26:55.257Z,21.20
2019-04-25T11:29:24.937Z,21.30
2019-04-25T11:31:54.315Z,21.50
2019-04-25T11:34:23.972Z,21.70
2019-04-25T11:36:54.534Z,21.60
2019-04-25T11:39:43.268Z,21.80
2019-04-25T11:42:14.944Z,21.80
2019-04-25T11:44:45.442Z,21.60
2019-04-25T11:47:15.551Z,21.40
2019-04-25T11:49:47.426Z,21.10
2019-04-25T11:52:27.471Z,20.70
2019-04-25T11:54:50.021Z,20.60
2019-04-25T11:57:19.784Z,20.50
2019-04-25T11:59:50.501Z,20.70
2019-04-25T12:02:21.089Z,20.90
2019-04-25T12:04:51.045Z,20.80
2019-04-25T12:07:20.780Z,20.70
2019-04-25T12:09:50.179Z,20.90
2019-04-25T12:12:19.625Z,21.20
2019-04-25T12:14:49.571Z,21.10
2019-04-25T12:17:19.138Z,21.20
2019-04-25T12:19:49.084Z,21.30
2019-04-25T12:22:18.651Z,21.20
2019-04-25T12:24:48.093Z,21.10
2019-04-25T12:27:17.478Z,21.20
2019-04-25T12:29:46.872Z,21.30
2019-04-25T12:32:16.248Z,21.40
2019-04-25T12:34:45.774Z,21.60
2019-04-25T12:37:15.287Z,21.80
2019-04-25T12:39:44.672Z,22.00
2019-04-25T12:42:14.516Z,22.10
2019-04-25T12:44:47.339Z,22.20
2019-04-25T12:47:18.355Z,22.20
2019-04-25T12:49:48.671Z,21.90
2019-04-25T12:52:18.158Z,21.80
2019-04-25T12:54:47.644Z,21.60
2019-04-25T12:57:17.087Z,21.20
2019-04-25T12:59:47.375Z,21.10
2019-04-25T13:02:16.958Z,21.20
2019-04-25T13:04:47.628Z,21.30
2019-04-25T13:07:17.163Z,21.40
2019-04-25T13:09:47.825Z,21.40
2019-04-25T13:12:17.495Z,21.50
2019-04-25T13:14:46.882Z,21.80
2019-04-25T13:17:16.597Z,22.10
2019-04-25T13:19:46.019Z,22.30
2019-04-25T13:22:15.790Z,22.50
2019-04-25T13:24:45.160Z,22.60
2019-04-25T13:27:27.868Z,22.70
2019-04-25T13:30:01.581Z,22.50
2019-04-25T13:32:41.315Z,22.40
2019-04-25T13:35:18.297Z,22.60
2019-04-25T13:37:47.684Z,22.70
2019-04-25T13:40:18.461Z,22.70
2019-04-25T13:42:48.054Z,22.60
2019-04-25T13:45:17.765Z,22.40
2019-04-25T13:47:47.294Z,22.20
2019-04-25T13:50:17.013Z,22.10
2019-04-25T13:52:46.495Z,22.30
2019-04-25T13:55:15.925Z,22.30
2019-04-25T13:57:45.350Z,22.40
2019-04-25T14:00:15.391Z,22.50
2019-04-25T14:02:44.922Z,22.50
2019-04-25T14:05:16.095Z,22.50
2019-04-25T14:07:45.492Z,22.40
2019-04-25T14:10:15.083Z,22.40
2019-04-25T14:12:44.469Z,22.40
2019-04-25T14:15:17.344Z,22.30
2019-04-25T14:17:54.361Z,22.30
2019-04-25T14:20:33.891Z,22.30
2019-04-25T14:23:03.678Z,22.20
2019-04-25T14:25:33.189Z,22.10
2019-04-25T14:28:05.403Z,21.90
2019-04-25T14:30:36.027Z,21.90
2019-04-25T14:33:05.630Z,21.80
2019-04-25T14:35:35.153Z,21.90
2019-04-25T14:38:04.616Z,22.20
2019-04-25T14:40:34.053Z,22.40
2019-04-25T14:43:05.149Z,22.60
2019-04-25T14:45:43.038Z,22.70
2019-04-25T14:48:05.891Z,22.60
2019-04-25T14:50:36.160Z,22.50
2019-04-25T14:53:05.688Z,22.40
2019-04-25T14:55:46.125Z,22.20
2019-04-25T14:58:17.137Z,22.20
2019-04-25T15:00:48.250Z,22.20
2019-04-25T15:03:17.702Z,22.30
2019-04-25T15:05:47.161Z,22.20
2019-04-25T15:08:16.576Z,22.10
2019-04-25T15:10:48.354Z,22.00
2019-04-25T15:13:17.311Z,21.90
2019-04-25T15:15:46.702Z,21.80
2019-04-25T15:18:16.138Z,21.70
2019-04-25T15:20:45.490Z,21.50
2019-04-25T15:23:14.882Z,21.60
2019-04-25T15:25:44.272Z,21.70
2019-04-25T15:28:13.825Z,22.10
2019-04-25T15:30:43.259Z,22.20
2019-04-25T15:33:12.656Z,22.30
2019-04-25T15:35:55.719Z,22.20
2019-04-25T15:38:44.614Z,22.20
2019-04-25T15:41:21.636Z,21.90
2019-04-25T15:43:58.632Z,21.70
2019-04-25T15:46:44.652Z,21.50
2019-04-25T15:49:14.110Z,21.30
2019-04-25T15:51:43.525Z,21.30
2019-04-25T15:54:12.893Z,21.30
2019-04-25T15:56:42.340Z,21.30
2019-04-25T15:59:11.731Z,21.20
2019-04-25T16:01:41.119Z,21.30
2019-04-25T16:04:10.511Z,21.40
2019-04-25T16:06:40.008Z,21.50
2019-04-25T16:09:10.478Z,21.60
2019-04-25T16:11:40.130Z,21.80
2019-04-25T16:14:09.518Z,22.00
2019-04-25T16:16:38.917Z,22.20
2019-04-25T16:19:08.831Z,22.30
2019-04-25T16:21:38.361Z,22.40
2019-04-25T16:24:08.518Z,22.50
2019-04-25T16:26:37.941Z,22.60
2019-04-25T16:29:07.460Z,22.70
2019-04-25T16:31:36.931Z,22.70
2019-04-25T16:34:06.400Z,22.60
2019-04-25T16:36:35.769Z,22.60
2019-04-25T16:39:08.803Z,22.50
2019-04-25T16:41:40.342Z,22.20
2019-04-25T16:44:10.966Z,22.10
2019-04-25T16:46:41.714Z,22.00
2019-04-25T16:49:11.124Z,21.80
2019-04-25T16:51:40.509Z,21.60
2019-04-25T16:54:09.998Z,21.40
2019-04-25T16:56:39.401Z,21.20
2019-04-25T16:59:08.877Z,21.00
2019-04-25T17:01:38.605Z,20.90
2019-04-25T17:04:08.180Z,20.80
2019-04-25T17:06:38.013Z,20.70
2019-04-25T17:09:07.821Z,20.70
2019-04-25T17:11:37.239Z,20.80
2019-04-25T17:14:08.334Z,20.80
2019-04-25T17:16:39.461Z,20.80
2019-04-25T17:19:16.243Z,20.80
2019-04-25T17:21:45.885Z,20.80
2019-04-25T17:24:15.350Z,20.80
2019-04-25T17:26:44.823Z,20.70
2019-04-25T17:29:15.946Z,20.60
2019-04-25T17:31:58.824Z,20.40
2019-04-25T17:34:30.758Z,20.20
2019-04-25T17:37:05.275Z,20.00
2019-04-25T17:39:42.230Z,19.90
2019-04-25T17:42:12.009Z,19.70
2019-04-25T17:44:41.377Z,19.50
2019-04-25T17:47:10.799Z,19.40
2019-04-25T17:49:40.190Z,19.30
2019-04-25T17:52:09.585Z,19.10
2019-04-25T17:54:38.978Z,18.90
2019-04-25T17:57:08.446Z,18.80
2019-04-25T17:59:37.843Z,18.70
2019-04-25T18:02:07.484Z,18.50
2019-04-25T18:04:36.873Z,18.40
2019-04-25T18:07:06.667Z,18.20
2019-04-25T18:09:36.829Z,18.00
2019-04-25T18:12:06.443Z,18.00
2019-04-25T18:14:36.373Z,17.90
2019-04-25T18:17:06.397Z,17.60
2019-04-25T18:19:46.631Z,17.50
2019-04-25T18:22:26.435Z,17.30
2019-04-25T18:25:00.429Z,17.10
2019-04-25T18:27:31.546Z,16.90
2019-04-25T18:30:01.125Z,16.70
2019-04-25T18:32:32.109Z,16.60
2019-04-25T18:35:03.147Z,16.40
2019-04-25T18:37:37.317Z,16.30
2019-04-25T18:40:12.138Z,16.20
2019-04-25T18:42:49.433Z,16.10
2019-04-25T18:45:23.317Z,16.10
2019-04-25T18:47:52.691Z,15.90
2019-04-25T18:50:23.719Z,15.80
2019-04-25T18:53:09.881Z,15.80
2019-04-25T18:55:49.703Z,15.70
2019-04-25T18:58:39.852Z,15.60
2019-04-25T19:01:13.709Z,15.60
2019-04-25T19:03:59.525Z,15.60
2019-04-25T19:06:28.996Z,15.50
2019-04-25T19:08:58.378Z,15.50
2019-04-25T19:11:27.883Z,15.50
2019-04-25T19:13:57.315Z,15.40
2019-04-25T19:16:26.708Z,15.40
2019-04-25T19:18:56.098Z,15.30
2019-04-25T19:21:25.691Z,15.20
2019-04-25T19:23:55.185Z,15.10
2019-04-25T19:26:24.627Z,15.10
2019-04-25T19:28:54.037Z,15.00
2019-04-25T19:31:23.406Z,15.00
2019-04-25T19:33:52.931Z,15.00
2019-04-25T19:36:22.412Z,14.90
2019-04-25T19:38:52.486Z,14.80
2019-04-25T19:41:29.454Z,14.80
2019-04-25T19:44:06.165Z,14.70
2019-04-25T19:46:40.359Z,14.60
2019-04-25T19:49:10.800Z,14.50
2019-04-25T19:51:41.667Z,14.60
2019-04-25T19:54:11.318Z,14.40
2019-04-25T19:56:42.259Z,14.40
2019-04-25T19:59:11.933Z,14.40
2019-04-25T20:01:42.476Z,14.30
2019-04-25T20:04:16.010Z,14.20
2019-04-25T20:07:02.831Z,14.10
2019-04-25T20:09:49.004Z,14.10
2019-04-25T20:12:19.021Z,13.90
2019-04-25T20:14:49.207Z,13.70
2019-04-25T20:17:18.663Z,13.60
2019-04-25T20:19:48.109Z,13.50
2019-04-25T20:22:17.581Z,13.40
2019-04-25T20:24:47.056Z,13.30
2019-04-25T20:27:16.423Z,13.30
2019-04-25T20:29:46.572Z,13.20
2019-04-25T20:32:16.119Z,13.00
2019-04-25T20:34:46.075Z,12.90
2019-04-25T20:37:16.492Z,12.80
2019-04-25T20:39:46.058Z,12.80
2019-04-25T20:42:15.467Z,12.80
2019-04-25T20:44:45.402Z,12.70
2019-04-25T20:47:16.082Z,12.70
2019-04-25T20:49:46.645Z,12.70
2019-04-25T20:52:16.217Z,12.70
2019-04-25T20:54:46.591Z,12.70
2019-04-25T20:57:16.812Z,12.70
2019-04-25T20:59:47.235Z,12.70
2019-04-25T21:02:17.404Z,12.70
2019-04-25T21:04:47.750Z,12.60
2019-04-25T21:07:17.920Z,12.50
2019-04-25T21:09:47.326Z,12.40
2019-04-25T21:12:18.532Z,12.30
2019-04-25T21:14:52.777Z,12.20
2019-04-25T21:17:32.865Z,12.20
2019-04-25T21:20:03.900Z,12.10
2019-04-25T21:22:33.379Z,12.00
2019-04-25T21:25:05.458Z,12.10
2019-04-25T21:27:34.221Z,12.10
2019-04-25T21:30:05.158Z,12.10
2019-04-25T21:32:36.175Z,12.10
2019-04-25T21:35:07.122Z,12.10
2019-04-25T21:37:36.507Z,12.10
2019-04-25T21:40:09.090Z,12.10
2019-04-25T21:42:40.529Z,12.10
2019-04-25T21:45:10.374Z,11.90
2019-04-25T21:47:39.823Z,11.80
2019-04-25T21:50:09.638Z,11.70
2019-04-25T21:52:39.746Z,11.80
2019-04-25T21:55:10.007Z,11.80
2019-04-25T21:57:39.758Z,11.90
2019-04-25T22:00:13.289Z,11.90
2019-04-25T22:02:42.938Z,11.80
2019-04-25T22:05:13.238Z,11.80
2019-04-25T22:07:42.919Z,11.70
2019-04-25T22:10:13.201Z,11.60
2019-04-25T22:12:42.833Z,11.60
2019-04-25T22:15:13.526Z,11.60
2019-04-25T22:17:42.991Z,11.60
2019-04-25T22:20:12.673Z,11.60
2019-04-25T22:22:42.528Z,11.60
2019-04-25T22:25:12.164Z,11.40
2019-04-25T22:27:41.873Z,11.40
2019-04-25T22:30:13.627Z,11.30
2019-04-25T22:32:45.001Z,11.20
2019-04-25T22:35:28.138Z,11.20
2019-04-25T22:37:57.631Z,11.10
2019-04-25T22:40:28.217Z,11.00
2019-04-25T22:42:58.226Z,11.00
2019-04-25T22:45:29.414Z,10.90
2019-04-25T22:48:01.306Z,10.90
2019-04-25T22:50:31.726Z,10.80
2019-04-25T22:53:02.016Z,10.80
2019-04-25T22:55:33.270Z,10.70
2019-04-25T22:58:03.689Z,10.50
2019-04-25T23:00:38.000Z,10.40
2019-04-25T23:03:09.398Z,10.40
2019-04-25T23:05:41.467Z,10.30
2019-04-25T23:08:11.124Z,10.20
2019-04-25T23:10:40.627Z,10.20
2019-04-25T23:13:10.942Z,10.10
2019-04-25T23:15:40.380Z,10.00
2019-04-25T23:18:10.073Z,10.00
2019-04-25T23:20:39.547Z,10.00
2019-04-25T23:23:09.719Z,10.00
2019-04-25T23:25:55.502Z,10.00
2019-04-25T23:28:26.849Z,9.90
2019-04-25T23:30:57.897Z,9.90
2019-04-25T23:33:28.662Z,9.80
2019-04-25T23:35:58.605Z,9.80
2019-04-25T23:38:28.011Z,9.80
2019-04-25T23:40:57.416Z,9.70
2019-04-25T23:43:27.037Z,9.60
2019-04-25T23:45:56.440Z,9.40
2019-04-25T23:48:26.314Z,9.30
2019-04-25T23:50:55.781Z,9.20
2019-04-25T23:53:25.194Z,9.20
2019-04-25T23:55:54.676Z,9.10
2019-04-25T23:58:24.217Z,9.10
